Time;durP1;ratioP1;P1;durP2;ratioP2;P2;SDS_P1;SDS_P2;PMS_P1;PMS_P2;Temp;Humidity;BMP_temperature;BMP_pressure;BME280_temperature;BME280_humidity;BME280_pressure;Samples;Min_cycle;Max_cycle;Signal;HPM_P1;HPM_P2
2021/09/07 00:00:11;;;;;;;19.08;13.95;;;16.10;99.90;;;;;;5092818;28;20055;-73
2021/09/07 00:02:36;;;;;;;17.50;14.10;;;16.10;99.90;;;;;;5091548;28;20092;-73
2021/09/07 00:05:02;;;;;;;18.30;12.93;;;16.10;99.90;;;;;;5091801;28;20040;-73
2021/09/07 00:07:28;;;;;;;16.77;12.18;;;16.10;99.90;;;;;;5091581;28;20353;-73
2021/09/07 00:09:53;;;;;;;22.33;15.90;;;16.10;99.90;;;;;;5092534;28;20075;-72
2021/09/07 00:12:19;;;;;;;21.58;15.25;;;16.00;99.90;;;;;;5091569;28;20376;-73
2021/09/07 00:14:45;;;;;;;26.35;14.77;;;16.00;99.90;;;;;;5091739;28;20052;-73
2021/09/07 00:17:11;;;;;;;21.00;15.07;;;16.00;99.90;;;;;;5074992;28;20036;-72
2021/09/07 00:19:38;;;;;;;19.27;14.77;;;16.00;99.90;;;;;;5092435;28;20380;-72
2021/09/07 00:22:04;;;;;;;21.75;15.15;;;16.00;99.90;;;;;;5091646;28;20036;-72
2021/09/07 00:24:29;;;;;;;19.30;14.95;;;16.00;99.90;;;;;;5075010;28;20093;-72
2021/09/07 00:26:56;;;;;;;19.45;14.65;;;16.00;99.90;;;;;;5091994;28;20435;-72
2021/09/07 00:29:22;;;;;;;20.13;15.55;;;16.10;99.90;;;;;;5092689;28;20403;-72
2021/09/07 00:31:47;;;;;;;20.75;14.88;;;16.10;99.90;;;;;;5092658;28;20032;-73
2021/09/07 00:34:13;;;;;;;20.67;15.93;;;16.00;99.90;;;;;;5094281;28;20039;-73
2021/09/07 00:36:39;;;;;;;24.27;14.90;;;16.10;99.90;;;;;;5096638;28;20484;-73
2021/09/07 00:39:04;;;;;;;18.52;13.95;;;16.00;99.90;;;;;;5096069;28;20127;-73
2021/09/07 00:41:30;;;;;;;21.77;14.90;;;16.00;99.90;;;;;;5096389;28;20044;-73
2021/09/07 00:43:55;;;;;;;20.38;14.57;;;16.00;99.90;;;;;;5096821;28;20039;-72
2021/09/07 00:46:21;;;;;;;21.25;15.15;;;16.00;99.90;;;;;;5096755;28;20538;-73
2021/09/07 00:48:47;;;;;;;21.48;15.98;;;16.00;99.90;;;;;;5096344;28;20396;-73
2021/09/07 00:51:12;;;;;;;19.67;14.95;;;16.00;99.90;;;;;;5094781;28;20075;-72
2021/09/07 00:53:39;;;;;;;20.25;15.10;;;16.00;99.90;;;;;;5096022;28;20036;-72
2021/09/07 00:56:05;;;;;;;18.55;14.45;;;16.00;99.90;;;;;;5096066;28;20043;-73
2021/09/07 00:58:32;;;;;;;19.10;14.98;;;16.00;99.90;;;;;;5095609;28;20165;-73
2021/09/07 01:00:58;;;;;;;20.77;14.95;;;16.00;99.90;;;;;;5094846;28;20396;-73
2021/09/07 01:03:24;;;;;;;22.42;16.35;;;16.00;99.90;;;;;;5095918;28;20051;-72
2021/09/07 01:05:49;;;;;;;23.98;15.52;;;16.00;99.90;;;;;;5096176;28;20040;-72
2021/09/07 01:08:15;;;;;;;21.20;15.20;;;16.00;99.90;;;;;;5095991;28;20404;-72
2021/09/07 01:10:41;;;;;;;22.33;15.90;;;16.00;99.90;;;;;;5078082;28;20040;-73
2021/09/07 01:13:07;;;;;;;21.58;15.55;;;16.10;99.90;;;;;;5096287;28;20535;-73
2021/09/07 01:15:33;;;;;;;23.27;15.90;;;16.10;99.90;;;;;;5094759;28;20075;-73
2021/09/07 01:17:58;;;;;;;19.60;15.07;;;16.10;99.90;;;;;;5095680;28;20392;-73
2021/09/07 01:20:24;;;;;;;22.88;15.63;;;16.00;99.90;;;;;;5095302;28;20067;-73
2021/09/07 01:22:49;;;;;;;24.95;16.60;;;16.00;99.90;;;;;;5095710;28;20094;-73
2021/09/07 01:25:17;;;;;;;20.20;16.48;;;16.00;99.90;;;;;;5094729;28;20040;-73
2021/09/07 01:27:44;;;;;;;23.98;16.40;;;16.10;99.90;;;;;;5094074;28;20052;-73
2021/09/07 01:30:10;;;;;;;23.98;17.98;;;16.00;99.90;;;;;;5095186;28;20153;-73
2021/09/07 01:32:36;;;;;;;20.80;16.17;;;16.00;99.90;;;;;;5095474;28;20055;-73
2021/09/07 01:35:02;;;;;;;24.67;17.20;;;16.00;99.90;;;;;;5094210;28;20447;-73
2021/09/07 01:37:28;;;;;;;22.60;16.88;;;15.90;99.90;;;;;;5095432;28;20039;-73
2021/09/07 01:39:53;;;;;;;23.75;18.55;;;15.90;99.90;;;;;;5094413;28;20036;-73
2021/09/07 01:42:22;;;;;;;22.50;17.70;;;15.90;99.90;;;;;;5095088;28;20038;-73
2021/09/07 01:44:48;;;;;;;24.67;17.80;;;15.90;99.90;;;;;;5095341;28;20072;-73
2021/09/07 01:47:13;;;;;;;23.08;17.33;;;15.90;99.90;;;;;;5094872;28;20058;-73
2021/09/07 01:49:39;;;;;;;24.30;17.95;;;15.90;99.90;;;;;;5095131;28;20085;-73
2021/09/07 01:52:14;;;;;;;21.50;16.80;;;15.90;99.90;;;;;;5095244;28;20460;-73
2021/09/07 01:54:45;;;;;;;24.27;18.27;;;15.90;99.90;;;;;;5095083;28;20036;-73
2021/09/07 01:57:12;;;;;;;27.30;18.35;;;15.90;99.90;;;;;;5095166;28;20058;-73
2021/09/07 01:59:38;;;;;;;22.70;16.80;;;15.90;99.90;;;;;;5094939;28;20082;-73
2021/09/07 02:02:04;;;;;;;23.27;18.48;;;15.90;99.90;;;;;;5095311;28;20083;-72
2021/09/07 02:04:30;;;;;;;25.60;17.98;;;15.90;99.90;;;;;;5095315;28;20083;-73
2021/09/07 02:06:55;;;;;;;19.27;17.10;;;15.90;99.90;;;;;;5093624;28;20169;-73
2021/09/07 02:09:22;;;;;;;25.05;19.13;;;15.90;99.90;;;;;;5094579;28;20042;-73
2021/09/07 02:11:48;;;;;;;21.52;18.50;;;15.90;99.90;;;;;;5094865;28;20044;-73
2021/09/07 02:14:13;;;;;;;25.90;18.58;;;15.90;99.90;;;;;;5094716;28;20063;-73
2021/09/07 02:16:39;;;;;;;26.85;19.40;;;15.90;99.90;;;;;;5093426;28;20043;-73
2021/09/07 02:19:04;;;;;;;24.45;18.92;;;15.90;99.90;;;;;;5094295;28;20085;-73
2021/09/07 02:21:30;;;;;;;24.30;17.38;;;15.90;99.90;;;;;;5093442;28;20411;-73
2021/09/07 02:23:56;;;;;;;24.10;19.27;;;15.90;99.90;;;;;;5094529;28;20085;-73
2021/09/07 02:26:21;;;;;;;24.45;18.88;;;15.90;99.90;;;;;;5094348;28;20114;-73
2021/09/07 02:28:47;;;;;;;22.55;17.95;;;15.90;99.90;;;;;;5092740;28;20083;-73
2021/09/07 02:31:13;;;;;;;25.73;18.27;;;15.90;99.90;;;;;;5094159;28;20051;-73
2021/09/07 02:33:39;;;;;;;23.58;17.75;;;15.90;99.90;;;;;;5076525;28;20036;-73
2021/09/07 02:36:05;;;;;;;24.92;18.92;;;15.90;99.90;;;;;;5094282;28;20032;-73
2021/09/07 02:38:30;;;;;;;24.50;19.83;;;15.90;99.90;;;;;;5093884;28;20044;-73
2021/09/07 02:40:59;;;;;;;21.90;18.17;;;15.90;99.90;;;;;;5094096;28;20130;-73
2021/09/07 02:43:25;;;;;;;23.23;18.95;;;15.90;99.90;;;;;;5094164;28;20038;-73
2021/09/07 02:45:52;;;;;;;22.85;18.00;;;15.90;99.90;;;;;;5094298;28;20043;-73
2021/09/07 02:48:18;;;;;;;21.02;16.92;;;15.90;99.90;;;;;;5093950;28;20504;-73
2021/09/07 02:50:44;;;;;;;25.25;19.27;;;15.90;99.90;;;;;;5093009;28;20372;-73
2021/09/07 02:53:09;;;;;;;25.27;18.60;;;15.80;99.90;;;;;;5093221;28;20036;-73
2021/09/07 02:55:35;;;;;;;22.40;18.08;;;15.90;99.90;;;;;;5094067;28;20043;-73
2021/09/07 02:58:01;;;;;;;28.63;19.15;;;15.80;99.90;;;;;;5093470;28;20484;-73
2021/09/07 03:00:27;;;;;;;25.10;19.55;;;15.80;99.90;;;;;;5093710;28;20484;-73
2021/09/07 03:02:52;;;;;;;29.13;21.27;;;15.90;99.90;;;;;;5093760;28;20043;-73
2021/09/07 03:05:18;;;;;;;29.73;22.23;;;15.80;99.90;;;;;;5092537;28;20087;-73
2021/09/07 03:07:43;;;;;;;28.27;19.60;;;15.80;99.90;;;;;;5093658;28;20047;-73
2021/09/07 03:10:09;;;;;;;29.90;21.55;;;15.80;99.90;;;;;;5093286;28;20036;-73
2021/09/07 03:12:35;;;;;;;30.67;20.27;;;15.80;99.90;;;;;;5093837;28;20043;-73
2021/09/07 03:15:01;;;;;;;29.98;20.95;;;15.80;99.90;;;;;;5092812;28;20032;-73
2021/09/07 03:17:26;;;;;;;27.10;19.60;;;15.80;99.90;;;;;;5075820;28;20153;-73
2021/09/07 03:19:52;;;;;;;27.08;19.10;;;15.80;99.90;;;;;;5093203;28;20067;-73
2021/09/07 03:22:17;;;;;;;25.63;20.25;;;15.80;99.90;;;;;;5093524;28;20480;-72
2021/09/07 03:24:43;;;;;;;28.30;21.55;;;15.80;99.90;;;;;;5092684;28;20036;-73
2021/09/07 03:27:08;;;;;;;31.70;21.95;;;15.70;99.90;;;;;;5092071;28;20116;-73
2021/09/07 03:29:34;;;;;;;27.13;21.65;;;15.80;99.90;;;;;;5093608;28;20044;-73
2021/09/07 03:32:00;;;;;;;28.02;20.45;;;15.70;99.90;;;;;;5093374;28;20044;-73
2021/09/07 03:34:25;;;;;;;28.60;21.83;;;15.70;99.90;;;;;;5093765;28;20077;-73
2021/09/07 03:36:51;;;;;;;26.45;20.08;;;15.80;99.90;;;;;;5075630;28;20074;-73
2021/09/07 03:39:20;;;;;;;27.27;21.85;;;15.70;99.90;;;;;;5093331;28;20043;-73
2021/09/07 03:41:46;;;;;;;25.98;20.15;;;15.80;99.90;;;;;;5092084;28;20052;-73
2021/09/07 03:44:11;;;;;;;25.30;19.35;;;15.70;99.90;;;;;;5093595;28;20036;-73
2021/09/07 03:46:37;;;;;;;25.95;21.98;;;15.70;99.90;;;;;;5093411;28;20032;-73
2021/09/07 03:49:03;;;;;;;29.60;20.05;;;15.70;99.90;;;;;;5091613;28;20061;-73
2021/09/07 03:51:28;;;;;;;25.52;19.55;;;15.70;99.90;;;;;;5092267;28;20143;-73
2021/09/07 03:53:54;;;;;;;24.08;20.25;;;15.70;99.90;;;;;;5093611;28;20044;-73
2021/09/07 03:56:20;;;;;;;26.58;19.05;;;15.80;99.90;;;;;;5093309;28;20032;-73
2021/09/07 03:58:46;;;;;;;22.42;18.58;;;15.80;99.90;;;;;;5074985;28;20040;-73
2021/09/07 04:01:12;;;;;;;27.70;20.50;;;15.70;99.90;;;;;;5093084;28;20480;-73
2021/09/07 04:03:37;;;;;;;23.15;18.80;;;15.80;99.90;;;;;;5092309;28;20043;-72
2021/09/07 04:06:03;;;;;;;26.48;19.15;;;15.80;99.90;;;;;;5093356;28;20040;-73
2021/09/07 04:08:29;;;;;;;23.48;19.13;;;15.80;99.90;;;;;;5093678;28;20077;-73
2021/09/07 04:10:54;;;;;;;31.23;21.10;;;15.80;99.90;;;;;;5097645;28;20479;-73
2021/09/07 04:13:20;;;;;;;24.10;19.33;;;15.70;99.90;;;;;;5097205;28;20071;-73
2021/09/07 04:15:45;;;;;;;25.90;20.50;;;15.80;99.90;;;;;;5097289;28;20484;-73
2021/09/07 04:18:11;;;;;;;25.13;20.55;;;15.70;99.90;;;;;;5097150;28;20408;-73
2021/09/07 04:20:37;;;;;;;25.98;19.77;;;15.70;99.90;;;;;;5096371;28;20040;-73
2021/09/07 04:23:02;;;;;;;30.65;21.85;;;15.80;99.90;;;;;;5095537;28;20090;-73
2021/09/07 04:25:28;;;;;;;25.35;19.48;;;15.80;99.90;;;;;;5096767;28;20052;-73
2021/09/07 04:27:54;;;;;;;25.15;21.50;;;15.80;99.90;;;;;;5096739;28;20126;-73
2021/09/07 04:30:20;;;;;;;30.13;21.85;;;15.80;99.90;;;;;;5095355;28;20051;-73
2021/09/07 04:32:46;;;;;;;26.38;19.70;;;15.80;99.90;;;;;;5096895;28;20036;-72
2021/09/07 04:35:12;;;;;;;27.52;19.50;;;15.70;99.90;;;;;;5096032;28;20043;-73
2021/09/07 04:37:38;;;;;;;25.52;18.77;;;15.80;99.90;;;;;;5097157;28;20071;-73
2021/09/07 04:40:04;;;;;;;25.73;20.50;;;15.80;99.90;;;;;;5096406;28;20089;-73
2021/09/07 04:42:29;;;;;;;26.52;20.42;;;15.80;99.90;;;;;;5096390;28;20040;-73
2021/09/07 04:44:55;;;;;;;26.83;21.02;;;15.70;99.90;;;;;;5096768;28;20043;-73
2021/09/07 04:47:23;;;;;;;23.27;20.15;;;15.70;99.90;;;;;;5094799;28;20050;-73
2021/09/07 04:49:49;;;;;;;23.17;19.83;;;15.70;99.90;;;;;;5096168;28;20040;-73
2021/09/07 04:52:14;;;;;;;25.83;19.33;;;15.70;99.90;;;;;;5094972;28;20040;-73
2021/09/07 04:54:40;;;;;;;24.15;20.38;;;15.70;99.90;;;;;;5095352;28;20068;-73
2021/09/07 04:57:05;;;;;;;23.83;19.73;;;15.70;99.90;;;;;;5095136;28;20051;-73
2021/09/07 04:59:31;;;;;;;27.23;20.50;;;15.70;99.90;;;;;;5096086;28;20028;-72
2021/09/07 05:01:57;;;;;;;27.65;20.33;;;15.70;99.90;;;;;;5094787;28;20553;-73
2021/09/07 05:04:22;;;;;;;25.05;19.80;;;15.70;99.90;;;;;;5096303;28;20089;-73
2021/09/07 05:06:48;;;;;;;26.80;20.58;;;15.70;99.90;;;;;;5096215;28;20052;-73
2021/09/07 05:09:13;;;;;;;23.98;19.33;;;15.70;99.90;;;;;;5077351;28;20044;-72
2021/09/07 05:11:39;;;;;;;24.80;19.13;;;15.70;99.90;;;;;;5094933;28;20036;-72
2021/09/07 05:14:06;;;;;;;28.10;21.35;;;15.60;99.90;;;;;;5094817;28;20040;-72
2021/09/07 05:16:32;;;;;;;27.92;21.73;;;15.70;99.90;;;;;;5095894;28;20137;-72
2021/09/07 05:18:57;;;;;;;25.92;20.20;;;15.60;99.90;;;;;;5095749;28;20503;-72
2021/09/07 05:21:23;;;;;;;26.77;19.83;;;15.60;99.90;;;;;;5095188;28;20043;-72
2021/09/07 05:23:50;;;;;;;26.73;19.70;;;15.60;99.90;;;;;;5096104;28;20048;-72
2021/09/07 05:26:15;;;;;;;25.58;20.52;;;15.70;99.90;;;;;;5095828;28;20507;-72
2021/09/07 05:28:41;;;;;;;29.33;21.40;;;15.70;99.90;;;;;;5095824;28;20036;-72
2021/09/07 05:31:07;;;;;;;26.55;20.10;;;15.70;99.90;;;;;;5095741;28;20422;-72
2021/09/07 05:33:32;;;;;;;21.95;18.15;;;15.70;99.90;;;;;;5095747;28;20036;-72
2021/09/07 05:35:58;;;;;;;26.40;20.60;;;15.70;99.90;;;;;;5095454;28;20040;-72
2021/09/07 05:38:23;;;;;;;23.70;19.52;;;15.80;99.90;;;;;;5095603;28;20129;-72
2021/09/07 05:40:50;;;;;;;25.08;20.05;;;15.80;99.90;;;;;;5095031;28;20039;-72
2021/09/07 05:43:16;;;;;;;29.33;20.50;;;15.80;99.90;;;;;;5095445;28;20043;-72
2021/09/07 05:45:42;;;;;;;24.70;18.42;;;15.80;99.90;;;;;;5095225;28;20040;-72
2021/09/07 05:48:07;;;;;;;21.95;18.90;;;15.80;99.90;;;;;;5095687;28;20126;-72
2021/09/07 05:50:33;;;;;;;22.92;19.42;;;15.80;99.90;;;;;;5094909;28;20054;-73
2021/09/07 05:52:58;;;;;;;26.10;16.83;;;15.90;99.90;;;;;;5095480;28;20511;-72
2021/09/07 05:55:24;;;;;;;21.05;16.70;;;16.00;99.90;;;;;;5095552;28;20035;-73
2021/09/07 05:57:53;;;;;;;24.45;18.05;;;16.00;99.90;;;;;;5094544;28;20493;-73
2021/09/07 06:00:19;;;;;;;25.10;19.30;;;16.00;99.90;;;;;;5094620;28;20369;-73
2021/09/07 06:02:44;;;;;;;25.67;19.38;;;16.00;99.90;;;;;;5093630;28;20036;-73
2021/09/07 06:05:10;;;;;;;24.20;18.80;;;16.00;99.90;;;;;;5094929;28;20036;-73
2021/09/07 06:07:37;;;;;;;22.83;19.40;;;16.10;99.90;;;;;;5094807;28;20138;-73
2021/09/07 06:10:03;;;;;;;23.75;19.80;;;16.10;99.90;;;;;;5094891;28;20028;-73
2021/09/07 06:12:28;;;;;;;23.23;18.38;;;16.00;99.90;;;;;;5093463;28;20032;-73
2021/09/07 06:14:54;;;;;;;27.15;19.67;;;16.10;99.90;;;;;;5093614;28;20040;-72
2021/09/07 06:17:19;;;;;;;22.25;18.20;;;16.10;99.90;;;;;;5094636;28;20075;-72
2021/09/07 06:19:45;;;;;;;22.40;18.02;;;16.10;99.90;;;;;;5094551;28;20047;-72
2021/09/07 06:22:10;;;;;;;23.23;19.80;;;16.20;99.90;;;;;;5094628;28;20047;-72
2021/09/07 06:24:36;;;;;;;26.10;19.45;;;16.20;99.90;;;;;;5094895;28;20392;-72
2021/09/07 06:27:02;;;;;;;25.70;19.58;;;16.20;99.90;;;;;;5094490;28;20031;-73
2021/09/07 06:29:28;;;;;;;27.20;20.27;;;16.30;99.90;;;;;;5094221;28;20048;-73
2021/09/07 06:31:53;;;;;;;26.70;19.58;;;16.30;99.90;;;;;;5094277;28;20104;-73
2021/09/07 06:34:26;;;;;;;23.80;19.70;;;16.30;99.90;;;;;;5094507;28;20499;-73
2021/09/07 06:36:56;;;;;;;27.05;19.52;;;16.30;99.90;;;;;;5093314;28;20051;-73
2021/09/07 06:39:22;;;;;;;24.98;18.45;;;16.30;99.90;;;;;;5094204;28;20032;-73
2021/09/07 06:41:48;;;;;;;25.95;18.13;;;16.30;99.90;;;;;;5094217;28;20032;-73
2021/09/07 06:44:13;;;;;;;26.20;18.95;;;16.30;99.90;;;;;;5094349;28;20398;-74
2021/09/07 06:46:40;;;;;;;29.23;19.42;;;16.30;99.90;;;;;;5094226;28;20365;-72
2021/09/07 06:49:05;;;;;;;27.33;19.05;;;16.40;99.90;;;;;;5093657;28;20435;-72
2021/09/07 06:51:32;;;;;;;25.98;18.77;;;16.50;99.90;;;;;;5076173;28;20036;-73
2021/09/07 06:53:57;;;;;;;32.78;20.70;;;16.50;99.90;;;;;;5094192;28;20039;-71
2021/09/07 06:56:23;;;;;;;22.55;18.50;;;16.60;99.90;;;;;;5093937;28;20119;-73
2021/09/07 06:58:49;;;;;;;23.88;18.65;;;16.60;99.90;;;;;;5093863;28;20040;-72
2021/09/07 07:01:14;;;;;;;21.90;17.98;;;16.70;99.90;;;;;;5093916;28;20040;-72
2021/09/07 07:03:40;;;;;;;22.92;18.67;;;16.70;99.90;;;;;;5094228;28;20247;-72
2021/09/07 07:06:05;;;;;;;26.25;18.05;;;16.70;99.90;;;;;;5092972;28;20080;-73
2021/09/07 07:08:31;;;;;;;21.52;17.05;;;16.70;99.90;;;;;;5092023;28;20492;-73
2021/09/07 07:10:56;;;;;;;24.80;17.27;;;16.80;99.90;;;;;;5092443;28;20036;-73
2021/09/07 07:13:22;;;;;;;23.88;17.42;;;16.80;99.90;;;;;;5093666;28;20036;-73
2021/09/07 07:15:49;;;;;;;24.85;16.83;;;16.90;99.90;;;;;;5093554;28;20077;-73
2021/09/07 07:18:14;;;;;;;19.52;16.50;;;17.00;99.90;;;;;;5092776;28;20040;-72
2021/09/07 07:20:40;;;;;;;23.90;17.02;;;17.10;99.90;;;;;;5093135;28;20050;-73
2021/09/07 07:23:06;;;;;;;20.98;16.67;;;17.20;99.90;;;;;;5093517;28;20166;-73
2021/09/07 07:25:31;;;;;;;23.25;17.90;;;17.20;99.90;;;;;;5093535;28;20040;-73
2021/09/07 07:28:01;;;;;;;22.73;17.02;;;17.20;99.90;;;;;;5093546;28;20438;-73
2021/09/07 07:30:27;;;;;;;25.85;18.00;;;17.30;99.90;;;;;;5092188;28;20040;-72
2021/09/07 07:32:54;;;;;;;25.13;15.95;;;17.30;99.90;;;;;;5093365;28;20038;-73
2021/09/07 07:35:20;;;;;;;21.48;16.77;;;17.40;99.90;;;;;;5093525;28;20040;-73
2021/09/07 07:37:45;;;;;;;24.13;17.92;;;17.40;99.90;;;;;;5093539;28;20036;-73
2021/09/07 07:40:11;;;;;;;21.45;16.42;;;17.50;99.90;;;;;;5093297;28;20035;-72
2021/09/07 07:42:37;;;;;;;22.73;16.92;;;17.70;99.90;;;;;;5093489;28;20111;-73
2021/09/07 07:45:03;;;;;;;21.35;15.68;;;17.80;99.90;;;;;;5092828;28;20036;-72
2021/09/07 07:47:29;;;;;;;22.13;17.02;;;18.10;99.90;;;;;;5093086;28;20080;-72
2021/09/07 07:49:54;;;;;;;20.67;15.23;;;18.30;99.90;;;;;;5092936;28;20040;-72
2021/09/07 07:52:20;;;;;;;22.75;17.67;;;18.40;99.90;;;;;;5093459;28;20090;-71
2021/09/07 07:54:49;;;;;;;20.77;15.60;;;18.60;99.90;;;;;;5093478;28;20040;-72
2021/09/07 07:57:15;;;;;;;30.90;16.52;;;18.70;99.90;;;;;;5093346;28;20047;-71
2021/09/07 07:59:41;;;;;;;21.38;15.63;;;18.90;99.90;;;;;;5091763;28;20051;-71
2021/09/07 08:02:06;;;;;;;21.73;16.23;;;19.00;99.90;;;;;;5093487;28;20029;-72
2021/09/07 08:04:32;;;;;;;19.75;15.50;;;19.10;99.90;;;;;;5091974;28;20048;-71
2021/09/07 08:06:57;;;;;;;19.98;14.77;;;19.40;99.90;;;;;;5093412;28;20047;-72
2021/09/07 08:09:23;;;;;;;22.60;15.65;;;19.80;99.90;;;;;;5091595;28;20044;-72
2021/09/07 08:11:49;;;;;;;19.42;15.70;;;20.10;99.90;;;;;;5092039;28;20040;-72
2021/09/07 08:14:15;;;;;;;20.60;14.93;;;20.30;99.90;;;;;;5093498;28;20123;-72
2021/09/07 08:16:40;;;;;;;18.48;14.70;;;20.50;99.90;;;;;;5093002;28;20047;-72
2021/09/07 08:19:06;;;;;;;21.75;14.80;;;20.70;99.90;;;;;;5092116;28;20488;-72
2021/09/07 08:21:32;;;;;;;17.55;13.57;;;20.90;99.90;;;;;;5093189;28;20074;-72
2021/09/07 08:23:57;;;;;;;18.13;14.00;;;21.00;99.90;;;;;;5093186;28;20083;-72
2021/09/07 08:26:23;;;;;;;19.17;13.35;;;21.10;99.90;;;;;;5075151;28;20039;-72
2021/09/07 08:28:49;;;;;;;18.67;14.27;;;21.30;99.90;;;;;;5074611;28;20047;-69
2021/09/07 08:31:15;;;;;;;19.48;14.13;;;21.30;99.90;;;;;;5091324;28;20047;-71
2021/09/07 08:33:40;;;;;;;20.65;13.30;;;21.60;99.90;;;;;;5091606;28;20385;-70
2021/09/07 08:36:06;;;;;;;18.55;14.20;;;21.70;99.90;;;;;;5093003;28;20040;-70
2021/09/07 08:38:32;;;;;;;17.13;13.50;;;22.00;99.90;;;;;;5091646;28;20044;-70
2021/09/07 08:40:59;;;;;;;18.65;13.38;;;22.20;99.90;;;;;;5093301;28;20055;-70
2021/09/07 08:43:25;;;;;;;17.80;13.50;;;22.20;99.90;;;;;;5092806;28;20044;-69
2021/09/07 08:45:53;;;;;;;20.80;13.32;;;22.30;99.90;;;;;;5093040;28;20040;-71
2021/09/07 08:48:21;;;;;;;15.85;11.68;;;22.50;99.90;;;;;;5092767;28;20044;-70
2021/09/07 08:50:47;;;;;;;21.08;13.20;;;22.60;99.90;;;;;;5092772;28;20376;-71
2021/09/07 08:53:12;;;;;;;22.25;12.57;;;22.70;99.90;;;;;;5092910;28;20036;-70
2021/09/07 08:55:38;;;;;;;17.98;12.38;;;22.80;99.90;;;;;;5091974;28;20046;-70
2021/09/07 08:58:04;;;;;;;18.00;12.20;;;22.80;99.40;;;;;;5095047;28;20044;-72
2021/09/07 09:00:32;;;;;;;17.80;12.10;;;23.00;99.40;;;;;;5095530;28;20122;-71
2021/09/07 09:03:09;;;;;;;18.33;12.27;;;23.10;99.80;;;;;;5096314;28;20435;-71
2021/09/07 09:05:35;;;;;;;13.40;10.98;;;23.10;99.10;;;;;;5096161;28;20040;-72
2021/09/07 09:08:01;;;;;;;15.45;10.63;;;23.00;99.40;;;;;;5096026;28;20526;-72
2021/09/07 09:10:27;;;;;;;16.58;12.07;;;23.00;98.30;;;;;;5095822;28;20405;-72
2021/09/07 09:13:14;;;;;;;15.88;12.18;;;22.90;97.50;;;;;;5096031;28;20036;-72
2021/09/07 09:15:41;;;;;;;18.55;11.93;;;22.70;97.60;;;;;;5095306;28;20044;-72
2021/09/07 09:18:12;;;;;;;15.70;9.48;;;22.80;99.30;;;;;;5096114;28;20123;-72
2021/09/07 09:20:39;;;;;;;14.55;10.77;;;22.90;98.60;;;;;;5095448;28;20072;-72
2021/09/07 09:23:08;;;;;;;13.98;9.40;;;22.90;97.60;;;;;;5094539;28;20083;-72
2021/09/07 09:25:39;;;;;;;14.70;10.68;;;23.00;97.30;;;;;;5095941;28;20047;-72
2021/09/07 09:28:06;;;;;;;15.48;10.32;;;23.10;98.40;;;;;;5095612;28;20488;-72
2021/09/07 09:30:38;;;;;;;16.05;9.88;;;23.20;96.50;;;;;;5094158;28;20046;-72
2021/09/07 09:33:05;;;;;;;17.65;10.98;;;23.00;95.30;;;;;;5096139;28;20036;-71
2021/09/07 09:35:32;;;;;;;18.08;10.60;;;23.00;95.30;;;;;;5095792;28;20044;-71
2021/09/07 09:38:00;;;;;;;13.82;10.07;;;23.00;95.00;;;;;;5095446;28;20082;-72
2021/09/07 09:40:27;;;;;;;17.58;10.98;;;23.10;95.10;;;;;;5093867;28;20093;-72
2021/09/07 09:42:54;;;;;;;15.57;9.75;;;23.10;96.70;;;;;;5094108;28;20040;-72
2021/09/07 09:45:28;;;;;;;15.02;9.57;;;23.10;95.70;;;;;;5095432;28;20046;-72
2021/09/07 09:47:57;;;;;;;13.75;9.82;;;23.00;94.80;;;;;;5095341;28;20503;-72
2021/09/07 09:50:27;;;;;;;12.95;10.00;;;22.90;94.10;;;;;;5093715;28;20047;-72
2021/09/07 09:52:55;;;;;;;13.50;10.80;;;23.00;94.40;;;;;;5095221;28;20115;-72
2021/09/07 09:55:22;;;;;;;15.57;9.05;;;23.00;94.60;;;;;;5095076;28;20036;-72
2021/09/07 09:57:48;;;;;;;15.50;9.48;;;23.10;92.80;;;;;;5095372;28;20044;-72
2021/09/07 10:00:16;;;;;;;11.05;8.23;;;23.10;91.70;;;;;;5095050;28;20404;-72
2021/09/07 10:02:43;;;;;;;15.18;10.23;;;23.20;93.50;;;;;;5095059;28;20048;-72
2021/09/07 10:05:13;;;;;;;16.60;10.93;;;23.20;92.70;;;;;;5094970;28;20032;-72
2021/09/07 10:07:39;;;;;;;11.75;9.80;;;23.10;92.90;;;;;;5094205;28;20415;-72
2021/09/07 10:10:06;;;;;;;14.90;9.60;;;23.20;91.70;;;;;;5094479;28;20397;-72
2021/09/07 10:12:45;;;;;;;17.38;11.55;;;23.30;92.70;;;;;;5094687;28;20541;-72
2021/09/07 10:17:51;;;;;;;15.05;9.73;;;23.20;91.90;;;;;;5094953;28;20545;-72
2021/09/07 10:20:51;;;;;;;14.50;9.52;;;23.20;92.00;;;;;;5093029;28;20055;-72
2021/09/07 10:25:52;;;;;;;14.55;10.38;;;23.20;91.80;;;;;;5093378;28;20094;-72
2021/09/07 10:28:35;;;;;;;17.30;10.70;;;23.30;91.70;;;;;;5094626;28;20384;-72
2021/09/07 10:31:05;;;;;;;11.95;9.35;;;23.40;89.80;;;;;;5093445;28;20048;-72
2021/09/07 10:33:38;;;;;;;13.77;9.35;;;23.30;90.90;;;;;;5093473;28;20048;-72
2021/09/07 10:36:07;;;;;;;15.25;10.75;;;23.30;90.70;;;;;;5094257;28;20042;-72
2021/09/07 10:38:40;;;;;;;14.57;10.38;;;23.30;90.60;;;;;;5093975;28;20048;-72
2021/09/07 10:41:07;;;;;;;13.43;9.80;;;23.20;90.20;;;;;;5094423;28;20040;-72
2021/09/07 10:43:54;;;;;;;13.90;9.70;;;23.30;90.50;;;;;;5094374;28;20120;-72
2021/09/07 10:46:44;;;;;;;14.23;10.05;;;23.20;88.00;;;;;;5094464;28;20047;-72
2021/09/07 10:49:23;;;;;;;16.00;9.80;;;23.30;90.20;;;;;;5093769;28;20062;-72
2021/09/07 10:52:17;;;;;;;14.98;10.25;;;23.30;90.80;;;;;;5092964;28;20117;-72
2021/09/07 10:54:52;;;;;;;17.45;10.80;;;23.50;92.10;;;;;;5093041;28;20039;-72
2021/09/07 10:57:36;;;;;;;14.95;10.13;;;23.50;91.60;;;;;;5093861;28;20044;-72
2021/09/07 11:00:10;;;;;;;13.75;9.45;;;23.60;90.10;;;;;;5093710;28;20032;-72
2021/09/07 11:02:43;;;;;;;16.13;11.55;;;23.50;89.50;;;;;;5076033;28;20105;-72
2021/09/07 11:05:11;;;;;;;13.15;10.40;;;23.40;89.60;;;;;;5092983;28;20036;-72
2021/09/07 11:07:43;;;;;;;12.38;9.80;;;23.40;91.40;;;;;;5093706;28;20377;-72
2021/09/07 11:10:15;;;;;;;14.48;9.73;;;23.50;90.50;;;;;;5093786;28;20032;-72
2021/09/07 11:12:50;;;;;;;14.57;9.13;;;23.50;92.10;;;;;;5093942;28;20051;-72
2021/09/07 11:15:22;;;;;;;13.15;9.23;;;23.60;91.80;;;;;;5093928;28;20040;-71
2021/09/07 11:17:50;;;;;;;13.32;9.23;;;23.60;94.30;;;;;;5093595;28;20546;-71
2021/09/07 11:20:16;;;;;;;13.77;8.90;;;23.40;95.10;;;;;;5092749;28;20111;-72
2021/09/07 11:22:42;;;;;;;14.32;9.70;;;23.40;93.40;;;;;;5093376;28;20487;-72
2021/09/07 11:25:25;;;;;;;13.30;9.52;;;23.50;92.00;;;;;;5093514;28;20032;-72
2021/09/07 11:28:00;;;;;;;12.00;8.77;;;23.50;97.50;;;;;;5092173;28;20075;-72
2021/09/07 11:30:31;;;;;;;11.95;9.65;;;23.50;96.80;;;;;;5093037;28;20477;-72
2021/09/07 11:33:05;;;;;;;13.57;9.25;;;23.50;96.70;;;;;;5075613;28;20068;-72
2021/09/07 11:35:37;;;;;;;14.50;9.50;;;23.50;94.00;;;;;;5093321;28;20064;-72
2021/09/07 11:38:08;;;;;;;14.20;9.57;;;23.40;92.80;;;;;;5093920;28;20082;-72
2021/09/07 11:40:36;;;;;;;11.73;8.88;;;23.40;93.40;;;;;;5093157;28;20036;-73
2021/09/07 11:43:02;;;;;;;11.68;8.75;;;23.40;94.70;;;;;;5093308;28;20051;-72
2021/09/07 11:45:31;;;;;;;13.60;9.55;;;23.30;95.70;;;;;;5093409;28;20156;-72
2021/09/07 11:47:59;;;;;;;13.70;9.52;;;23.40;96.10;;;;;;5093478;28;20036;-72
2021/09/07 11:50:31;;;;;;;15.35;9.52;;;23.40;95.60;;;;;;5092081;28;20040;-73
2021/09/07 11:52:58;;;;;;;14.25;10.48;;;23.40;94.10;;;;;;5093530;28;20438;-73
2021/09/07 11:55:45;;;;;;;12.18;9.45;;;23.40;94.90;;;;;;5093463;28;20484;-73
2021/09/07 11:58:23;;;;;;;13.63;10.52;;;23.40;92.90;;;;;;5093218;28;20423;-73
2021/09/07 12:01:04;;;;;;;13.32;9.38;;;23.40;91.20;;;;;;5093222;28;20040;-73
2021/09/07 12:03:58;;;;;;;13.52;10.23;;;23.50;94.50;;;;;;5093522;28;20040;-73
2021/09/07 12:06:38;;;;;;;14.02;10.02;;;23.50;96.10;;;;;;5093320;28;20123;-73
2021/09/07 12:09:22;;;;;;;14.07;9.02;;;23.40;92.40;;;;;;5092768;28;20492;-73
2021/09/07 12:12:03;;;;;;;13.82;9.85;;;23.50;92.60;;;;;;5092039;28;20047;-72
2021/09/07 12:14:38;;;;;;;11.75;8.48;;;23.60;93.30;;;;;;5093230;28;20119;-72
2021/09/07 12:17:06;;;;;;;12.57;9.27;;;23.60;94.90;;;;;;5092030;28;20051;-72
2021/09/07 12:19:40;;;;;;;13.55;9.20;;;23.60;95.40;;;;;;5092519;28;20044;-72
2021/09/07 12:22:13;;;;;;;14.07;9.07;;;23.70;94.70;;;;;;5093177;28;20044;-72
2021/09/07 12:24:57;;;;;;;12.88;9.23;;;23.70;96.20;;;;;;5093021;28;20372;-72
2021/09/07 12:27:24;;;;;;;11.60;9.05;;;23.70;95.30;;;;;;5074780;28;20055;-72
2021/09/07 12:30:08;;;;;;;15.13;9.23;;;23.70;97.20;;;;;;5092326;28;20492;-72
2021/09/07 12:32:57;;;;;;;14.68;8.77;;;23.80;97.50;;;;;;5096609;28;20044;-72
2021/09/07 12:35:30;;;;;;;18.40;9.75;;;23.60;96.20;;;;;;5096663;28;20049;-72